createdAt,value
2022-12-18T00:02:44.037Z,102609.16
2022-12-18T00:05:51.493Z,102621.22
2022-12-18T00:09:00.769Z,102625.59
2022-12-18T00:15:20.970Z,102627.16
2022-12-18T00:18:25.495Z,102607.53
2022-12-18T00:21:32.447Z,102608.13
2022-12-18T00:24:37.126Z,102605.44
2022-12-18T00:27:42.056Z,102597.75
2022-12-18T00:30:50.987Z,102590.88
2022-12-18T00:33:57.235Z,102592.75
2022-12-18T00:37:01.984Z,102596.13
2022-12-18T00:40:08.476Z,102609.09
2022-12-18T00:43:15.834Z,102617.66
2022-12-18T00:46:20.688Z,102605.75
2022-12-18T00:49:25.108Z,102614.31
2022-12-18T00:52:29.518Z,102600.50
2022-12-18T00:55:34.119Z,102597.81
2022-12-18T00:58:41.034Z,102596.13
2022-12-18T01:01:48.936Z,102583.13
2022-12-18T01:04:53.680Z,102590.50
2022-12-18T01:07:58.863Z,102596.63
2022-12-18T01:11:21.521Z,102611.16
2022-12-18T01:14:26.454Z,102607.66
2022-12-18T01:17:32.110Z,102622.16
2022-12-18T01:20:36.294Z,102624.78
2022-12-18T01:23:41.883Z,102625.56
2022-12-18T01:26:47.385Z,102629.81
2022-12-18T01:29:53.120Z,102626.19
2022-12-18T01:32:59.120Z,102627.06
2022-12-18T01:36:03.822Z,102622.75
2022-12-18T01:39:13.955Z,102625.31
2022-12-18T01:42:19.760Z,102622.44
2022-12-18T01:45:30.981Z,102623.47
2022-12-18T01:48:35.588Z,102620.69
2022-12-18T01:51:39.861Z,102627.56
2022-12-18T01:54:45.948Z,102638.75
2022-12-18T01:57:56.146Z,102649.84
2022-12-18T02:01:00.775Z,102656.84
2022-12-18T02:04:27.209Z,102657.59
2022-12-18T02:08:11.787Z,102652.34
2022-12-18T02:11:40.883Z,102654.97
2022-12-18T02:15:32.868Z,102649.84
2022-12-18T02:18:44.333Z,102646.34
2022-12-18T02:22:07.838Z,102641.09
2022-12-18T02:26:09.341Z,102640.97
2022-12-18T02:29:20.868Z,102649.59
2022-12-18T02:32:34.869Z,102648.59
2022-12-18T02:35:42.491Z,102654.72
2022-12-18T02:38:48.115Z,102659.66
2022-12-18T02:41:53.525Z,102649.53
2022-12-18T02:44:57.970Z,102651.22
2022-12-18T02:48:02.798Z,102644.31
2022-12-18T02:51:28.982Z,102634.06
2022-12-18T02:54:57.670Z,102634.72
2022-12-18T02:58:31.646Z,102645.69
2022-12-18T03:01:58.089Z,102648.13
2022-12-18T03:05:18.588Z,102648.06
2022-12-18T03:08:29.016Z,102652.47
2022-12-18T03:11:57.288Z,102654.81
2022-12-18T03:15:19.596Z,102648.97
2022-12-18T03:19:01.947Z,102655.81
2022-12-18T03:22:09.273Z,102668.66
2022-12-18T03:25:16.383Z,102672.97
2022-12-18T03:28:23.433Z,102663.66
2022-12-18T03:31:31.779Z,102665.41
2022-12-18T03:34:41.012Z,102662.59
2022-12-18T03:37:46.154Z,102657.44
2022-12-18T03:41:08.792Z,102660.03
2022-12-18T03:44:40.958Z,102661.84
2022-12-18T03:48:10.927Z,102658.31
2022-12-18T03:51:40.723Z,102656.66
2022-12-18T03:54:47.372Z,102647.06
2022-12-18T03:57:54.865Z,102638.44
2022-12-18T04:01:05.832Z,102638.44
2022-12-18T04:04:12.197Z,102640.81
2022-12-18T04:07:18.290Z,102635.69
2022-12-18T04:10:22.805Z,102635.69
2022-12-18T04:13:35.209Z,102638.91
2022-12-18T04:16:39.529Z,102641.53
2022-12-18T04:19:43.958Z,102657.19
2022-12-18T04:22:48.758Z,102646.19
2022-12-18T04:25:53.111Z,102644.44
2022-12-18T04:28:57.343Z,102636.53
2022-12-18T04:32:01.641Z,102638.44
2022-12-18T04:35:09.508Z,102641.53
2022-12-18T04:38:13.912Z,102640.66
2022-12-18T04:41:18.271Z,102641.59
2022-12-18T04:44:22.593Z,102639.19
2022-12-18T04:47:27.416Z,102633.31
2022-12-18T04:50:32.504Z,102641.81
2022-12-18T04:53:37.083Z,102637.53
2022-12-18T04:56:41.669Z,102634.81
2022-12-18T04:59:46.165Z,102644.22
2022-12-18T05:02:50.734Z,102645.00
2022-12-18T05:05:55.749Z,102658.69
2022-12-18T05:08:59.955Z,102657.88
2022-12-18T05:12:04.207Z,102660.19
2022-12-18T05:15:09.161Z,102664.53
2022-12-18T05:18:14.069Z,102667.94
2022-12-18T05:21:19.214Z,102689.19
2022-12-18T05:24:23.491Z,102687.44
2022-12-18T05:27:27.637Z,102685.69
2022-12-18T05:30:32.441Z,102686.28
2022-12-18T05:33:38.295Z,102695.81
2022-12-18T05:36:43.016Z,102687.25
2022-12-18T05:39:49.081Z,102683.59
2022-12-18T05:42:53.231Z,102682.56
2022-12-18T05:45:58.509Z,102686.91
2022-12-18T05:49:03.062Z,102688.38
2022-12-18T05:52:08.536Z,102687.63
2022-12-18T05:55:13.008Z,102683.19
2022-12-18T05:58:17.454Z,102685.75
2022-12-18T06:01:27.284Z,102692.50
2022-12-18T06:04:31.802Z,102693.50
2022-12-18T06:07:35.970Z,102697.69
2022-12-18T06:10:50.337Z,102707.13
2022-12-18T06:13:58.875Z,102700.25
2022-12-18T06:17:04.040Z,102703.63
2022-12-18T06:20:08.775Z,102698.34
2022-12-18T06:23:13.410Z,102708.63
2022-12-18T06:26:17.583Z,102695.88
2022-12-18T06:29:22.082Z,102706.78
2022-12-18T06:32:27.327Z,102710.16
2022-12-18T06:35:33.583Z,102712.72
2022-12-18T06:38:41.204Z,102712.72
2022-12-18T06:41:46.657Z,102721.41
2022-12-18T06:44:50.854Z,102710.09
2022-12-18T06:47:55.397Z,102707.53
2022-12-18T06:51:00.697Z,102707.59
2022-12-18T06:54:06.545Z,102710.69
2022-12-18T06:57:11.552Z,102714.16
2022-12-18T07:00:16.171Z,102714.88
2022-12-18T07:03:20.238Z,102713.31
2022-12-18T07:06:26.775Z,102722.47
2022-12-18T07:09:30.991Z,102727.38
2022-12-18T07:12:35.297Z,102735.16
2022-12-18T07:15:39.845Z,102748.03
2022-12-18T07:18:44.998Z,102755.50
2022-12-18T07:21:50.468Z,102756.53
2022-12-18T07:24:54.743Z,102757.41
2022-12-18T07:27:59.113Z,102751.69
2022-12-18T07:31:08.694Z,102752.56
2022-12-18T07:34:14.924Z,102755.94
2022-12-18T07:37:19.507Z,102761.78
2022-12-18T07:40:23.895Z,102760.25
2022-12-18T07:43:28.212Z,102762.81
2022-12-18T07:46:32.533Z,102771.31
2022-12-18T07:49:36.625Z,102771.16
2022-12-18T07:52:41.208Z,102767.81
2022-12-18T07:56:25.033Z,102764.41
2022-12-18T07:59:11.523Z,102766.19
2022-12-18T08:02:16.121Z,102759.50
2022-12-18T08:05:21.791Z,102758.09
2022-12-18T08:08:26.269Z,102758.25
2022-12-18T08:11:30.889Z,102754.09
2022-12-18T08:14:35.709Z,102765.41
2022-12-18T08:17:40.252Z,102756.91
2022-12-18T08:20:44.462Z,102756.38
2022-12-18T08:23:49.378Z,102758.41
2022-12-18T08:27:21.251Z,102743.22
2022-12-18T08:30:22.552Z,102737.38
2022-12-18T08:33:27.331Z,102745.06
2022-12-18T08:36:31.676Z,102750.44
2022-12-18T08:39:36.134Z,102753.13
2022-12-18T08:42:59.147Z,102762.66
2022-12-18T08:46:04.230Z,102757.53
2022-12-18T08:49:10.609Z,102761.78
2022-12-18T08:52:15.111Z,102762.94
2022-12-18T08:55:19.668Z,102771.50
2022-12-18T08:58:24.833Z,102765.72
2022-12-18T09:01:29.682Z,102762.25
2022-12-18T09:04:34.347Z,102763.94
2022-12-18T09:07:38.842Z,102766.72
2022-12-18T09:10:49.264Z,102760.94
2022-12-18T09:13:55.207Z,102753.19
2022-12-18T09:17:00.043Z,102752.59
2022-12-18T09:20:06.650Z,102757.22
2022-12-18T09:23:15.456Z,102760.06
2022-12-18T09:26:20.163Z,102752.63
2022-12-18T09:29:24.523Z,102755.38
2022-12-18T09:32:29.065Z,102761.56
2022-12-18T09:35:33.509Z,102760.75
2022-12-18T09:38:39.281Z,102762.38
2022-12-18T09:41:48.259Z,102750.75
2022-12-18T09:44:55.295Z,102749.34
2022-12-18T09:48:03.677Z,102744.41
2022-12-18T09:51:29.795Z,102741.25
2022-12-18T09:54:51.128Z,102743.41
2022-12-18T09:58:29.717Z,102756.56
2022-12-18T10:01:44.711Z,102759.59
2022-12-18T10:05:24.829Z,102757.34
2022-12-18T10:09:17.535Z,102754.03
2022-12-18T10:13:05.776Z,102764.31
2022-12-18T10:16:27.608Z,102770.94
2022-12-18T10:20:02.147Z,102766.03
2022-12-18T10:24:02.201Z,102750.25
2022-12-18T10:27:18.082Z,102760.09
2022-12-18T10:30:27.877Z,102763.91
2022-12-18T10:33:35.083Z,102761.81
2022-12-18T10:36:40.201Z,102748.56
2022-12-18T10:39:46.221Z,102734.50
2022-12-18T10:43:15.943Z,102725.50
2022-12-18T10:46:22.228Z,102729.41
2022-12-18T10:49:31.380Z,102715.88
2022-12-18T10:52:37.776Z,102719.47
2022-12-18T10:55:48.055Z,102715.88
2022-12-18T10:59:06.227Z,102712.78
2022-12-18T11:02:36.852Z,102706.41
2022-12-18T11:05:41.278Z,102705.13
2022-12-18T11:09:13.162Z,102694.72
2022-12-18T11:12:23.722Z,102707.22
2022-12-18T11:15:31.049Z,102710.25
2022-12-18T11:18:37.132Z,102719.66
2022-12-18T11:21:44.729Z,102723.94
2022-12-18T11:28:39.935Z,102703.88
2022-12-18T11:31:44.676Z,102705.75
2022-12-18T11:35:18.198Z,102706.91
2022-12-18T11:38:26.487Z,102706.56
2022-12-18T11:42:10.731Z,102686.66
2022-12-18T11:45:15.390Z,102681.75
2022-12-18T11:48:44.712Z,102679.91
2022-12-18T11:52:31.131Z,102688.53
2022-12-18T11:55:52.261Z,102681.66
2022-12-18T11:59:23.563Z,102674.44
2022-12-18T12:03:01.262Z,102680.41
2022-12-18T12:06:11.963Z,102671.94
2022-12-18T12:10:02.411Z,102670.88
2022-12-18T12:13:34.774Z,102657.16
2022-12-18T12:17:36.288Z,102652.56
2022-12-18T12:21:17.761Z,102639.69
2022-12-18T12:24:54.366Z,102634.53
2022-12-18T12:28:09.223Z,102615.25
2022-12-18T12:31:44.413Z,102612.69
2022-12-18T12:35:13.018Z,102592.69
2022-12-18T12:38:26.586Z,102592.66
2022-12-18T12:41:54.037Z,102595.31
2022-12-18T12:45:04.015Z,102602.34
2022-12-18T12:48:47.939Z,102598.88
2022-12-18T12:52:13.421Z,102601.13
2022-12-18T12:55:28.618Z,102605.47
2022-12-18T12:58:48.214Z,102599.66
2022-12-18T13:02:11.903Z,102593.25
2022-12-18T13:05:41.630Z,102591.63
2022-12-18T13:09:00.983Z,102582.94
2022-12-18T13:12:34.994Z,102584.09
2022-12-18T13:16:04.302Z,102575.31
2022-12-18T13:19:26.445Z,102584.66
2022-12-18T13:22:52.641Z,102581.88
2022-12-18T13:26:28.986Z,102585.22
2022-12-18T13:29:46.532Z,102574.28
2022-12-18T13:33:14.665Z,102576.53
2022-12-18T13:36:34.622Z,102580.75
2022-12-18T13:39:39.933Z,102584.88
2022-12-18T13:43:09.094Z,102584.94
2022-12-18T13:46:33.799Z,102590.94
2022-12-18T13:49:44.881Z,102587.94
2022-12-18T13:52:53.153Z,102582.00
2022-12-18T13:55:58.414Z,102578.41
2022-12-18T13:59:23.282Z,102572.50
2022-12-18T14:02:30.648Z,102577.47
2022-12-18T14:05:44.382Z,102571.19
2022-12-18T14:08:51.385Z,102573.59
2022-12-18T14:12:15.785Z,102565.22
2022-12-18T14:15:35.547Z,102563.28
2022-12-18T14:19:03.833Z,102556.56
2022-12-18T14:22:33.210Z,102558.97
2022-12-18T14:25:38.576Z,102566.69
2022-12-18T14:28:49.408Z,102558.13
2022-12-18T14:32:19.382Z,102560.53
2022-12-18T14:35:24.267Z,102560.09
2022-12-18T14:38:34.275Z,102544.56
2022-12-18T14:41:40.194Z,102549.13
2022-12-18T14:45:12.551Z,102535.13
2022-12-18T14:48:25.581Z,102531.44
2022-12-18T14:51:34.677Z,102531.50
2022-12-18T14:54:41.659Z,102524.63
2022-12-18T14:58:55.272Z,102518.47
2022-12-18T15:02:09.860Z,102536.75
2022-12-18T15:05:32.236Z,102526.47
2022-12-18T15:08:51.966Z,102524.75
2022-12-18T15:12:01.003Z,102511.88
2022-12-18T15:15:39.156Z,102509.22
2022-12-18T15:18:50.373Z,102502.22
2022-12-18T15:22:02.886Z,102495.22
2022-12-18T15:25:38.685Z,102490.63
2022-12-18T15:28:57.105Z,102484.75
2022-12-18T15:32:19.368Z,102479.59
2022-12-18T15:35:26.174Z,102456.41
2022-12-18T15:38:34.327Z,102457.28
2022-12-18T15:42:02.070Z,102453.91
2022-12-18T15:45:17.759Z,102452.25
2022-12-18T15:48:44.700Z,102458.28
2022-12-18T15:52:14.440Z,102452.41
2022-12-18T15:55:46.152Z,102442.91
2022-12-18T15:59:07.705Z,102452.25
2022-12-18T16:02:37.903Z,102444.53
2022-12-18T16:05:51.731Z,102440.25
2022-12-18T16:09:26.203Z,102443.72
2022-12-18T16:12:43.137Z,102439.28
2022-12-18T16:16:00.867Z,102438.22
2022-12-18T16:19:08.279Z,102428.00
2022-12-18T16:22:47.120Z,102438.28
2022-12-18T16:25:58.489Z,102440.03
2022-12-18T16:29:17.074Z,102438.06
2022-12-18T16:32:24.473Z,102431.09
2022-12-18T16:35:41.178Z,102424.19
2022-12-18T16:39:04.638Z,102430.31
2022-12-18T16:42:41.253Z,102416.75
2022-12-18T16:45:51.723Z,102402.00
2022-12-18T16:49:29.589Z,102392.66
2022-12-18T16:52:41.414Z,102383.28
2022-12-18T16:56:03.893Z,102389.44
2022-12-18T16:59:13.430Z,102374.88
2022-12-18T17:02:23.745Z,102377.38
2022-12-18T17:05:36.445Z,102366.03
2022-12-18T17:08:43.929Z,102348.97
2022-12-18T17:11:53.665Z,102355.78
2022-12-18T17:14:58.727Z,102355.84
2022-12-18T17:18:03.633Z,102351.66
2022-12-18T17:21:10.421Z,102358.56
2022-12-18T17:24:15.003Z,102366.22
2022-12-18T17:27:23.124Z,102354.31
2022-12-18T17:30:28.026Z,102351.78
2022-12-18T17:33:33.140Z,102349.94
2022-12-18T17:36:40.290Z,102347.41
2022-12-18T17:39:46.122Z,102342.19
2022-12-18T17:42:53.789Z,102339.66
2022-12-18T17:46:03.659Z,102332.00
2022-12-18T17:49:17.945Z,102340.53
2022-12-18T17:52:28.128Z,102324.25
2022-12-18T17:55:42.150Z,102314.69
2022-12-18T17:58:48.174Z,102325.00
2022-12-18T18:01:52.715Z,102313.09
2022-12-18T18:05:01.932Z,102295.16
2022-12-18T18:08:06.965Z,102289.94
2022-12-18T18:11:48.111Z,102286.41
2022-12-18T18:14:55.133Z,102266.72
2022-12-18T18:18:02.179Z,102267.47
2022-12-18T18:21:10.199Z,102264.03
2022-12-18T18:24:23.609Z,102258.13
2022-12-18T18:27:32.762Z,102249.50
2022-12-18T18:30:54.592Z,102250.50
2022-12-18T18:33:59.802Z,102241.06
2022-12-18T18:37:07.791Z,102241.13
2022-12-18T18:40:23.567Z,102236.13
2022-12-18T18:43:33.318Z,102227.38
2022-12-18T18:46:43.554Z,102227.50
2022-12-18T18:49:48.655Z,102231.94
2022-12-18T18:53:05.333Z,102224.28
2022-12-18T18:59:38.319Z,102211.44
2022-12-18T19:02:52.161Z,102198.56
2022-12-18T19:06:01.531Z,102179.75
2022-12-18T19:09:14.236Z,102172.03
2022-12-18T19:13:13.099Z,102161.72
2022-12-18T19:16:24.370Z,102154.09
2022-12-18T19:23:14.358Z,102158.47
2022-12-18T19:26:28.728Z,102155.88
2022-12-18T19:29:38.156Z,102138.03
2022-12-18T19:32:45.457Z,102144.03
2022-12-18T19:36:12.717Z,102140.66
2022-12-18T19:39:22.978Z,102145.06
2022-12-18T19:42:35.256Z,102132.34
2022-12-18T19:45:47.795Z,102128.91
2022-12-18T19:48:56.424Z,102126.44
2022-12-18T19:52:15.466Z,102118.81
2022-12-18T19:55:50.256Z,102122.25
2022-12-18T19:59:07.476Z,102107.63
2022-12-18T20:02:39.985Z,102110.13
2022-12-18T20:05:57.829Z,102106.72
2022-12-18T20:09:07.172Z,102092.28
2022-12-18T20:12:24.247Z,102083.75
2022-12-18T20:15:29.470Z,102076.88
2022-12-18T20:18:58.748Z,102074.38
2022-12-18T20:22:04.212Z,102065.75
2022-12-18T20:25:38.998Z,102077.84
2022-12-18T20:29:00.980Z,102061.66
2022-12-18T20:32:24.461Z,102051.31
2022-12-18T20:36:10.284Z,102057.41
2022-12-18T20:39:19.237Z,102036.88
2022-12-18T20:42:34.987Z,102041.06
2022-12-18T20:45:49.744Z,102040.34
2022-12-18T20:49:06.411Z,102018.19
2022-12-18T20:52:11.511Z,102039.66
2022-12-18T20:55:17.051Z,102036.94
2022-12-18T20:58:37.124Z,102057.69
2022-12-18T21:02:12.875Z,102068.06
2022-12-18T21:05:23.862Z,102084.47
2022-12-18T21:08:31.255Z,102082.72
2022-12-18T21:12:42.561Z,102069.97
2022-12-18T21:16:04.408Z,102070.16
2022-12-18T21:19:46.116Z,102066.63
2022-12-18T21:27:22.039Z,102064.13
2022-12-18T21:53:16.365Z,102023.72
2022-12-18T21:56:52.426Z,102033.13
2022-12-18T22:01:05.054Z,102022.09
2022-12-18T22:04:23.062Z,102014.34
2022-12-18T22:07:44.213Z,102020.31
2022-12-18T22:10:53.182Z,102009.22
2022-12-18T22:13:59.273Z,101995.56
2022-12-18T22:17:11.595Z,102004.22
2022-12-18T22:20:21.173Z,101997.31
2022-12-18T22:24:43.446Z,101991.38
2022-12-18T22:28:23.976Z,101996.53
2022-12-18T22:31:32.705Z,101978.56
2022-12-18T22:34:39.988Z,101985.44
2022-12-18T22:37:54.258Z,101988.06
2022-12-18T22:41:06.247Z,101967.53
2022-12-18T22:44:12.076Z,101973.59
2022-12-18T22:47:29.737Z,101961.69
2022-12-18T22:50:47.828Z,101947.16
2022-12-18T22:53:55.154Z,101940.31
2022-12-18T22:57:07.119Z,101930.03
2022-12-18T23:00:26.887Z,101929.09
2022-12-18T23:03:34.943Z,101918.88
2022-12-18T23:06:45.628Z,101917.91
2022-12-18T23:10:32.281Z,101916.25
2022-12-18T23:13:45.670Z,101914.50
2022-12-18T23:17:00.139Z,101905.19
2022-12-18T23:20:06.036Z,101916.25
2022-12-18T23:23:21.790Z,101911.13
2022-12-18T23:26:28.457Z,101926.56
2022-12-18T23:29:33.520Z,101918.91
2022-12-18T23:32:42.780Z,101919.88
2022-12-18T23:35:55.754Z,101916.25
2022-12-18T23:39:06.276Z,101903.47
2022-12-18T23:42:19.215Z,101891.38
2022-12-18T23:45:28.575Z,101882.88
2022-12-18T23:48:49.906Z,101889.69
2022-12-18T23:52:17.809Z,101881.06
2022-12-18T23:55:23.329Z,101882.91
2022-12-18T23:58:39.699Z,101880.31
